Time;durP1;ratioP1;P1;durP2;ratioP2;P2;SDS_P1;SDS_P2;PMS_P1;PMS_P2;Temp;Humidity;BMP_temperature;BMP_pressure;BME280_temperature;BME280_humidity;BME280_pressure;Samples;Min_cycle;Max_cycle;Signal;HPM_P1;HPM_P2
2021/09/13 00:02:11;;;;;;;7.47;5.72;;;;;;;14.48;72.06;99095.94;2617671;54;20030;-70
2021/09/13 00:04:41;;;;;;;6.43;5.85;;;;;;;14.51;72.14;99098.22;2617430;54;20102;-69
2021/09/13 00:07:11;;;;;;;6.13;5.45;;;;;;;14.55;72.32;99102.09;2617727;54;20832;-69
2021/09/13 00:09:41;;;;;;;5.63;5.13;;;;;;;14.54;71.77;99095.16;2617652;54;20023;-68
2021/09/13 00:12:13;;;;;;;8.15;5.45;;;;;;;14.56;71.75;99095.72;2617265;47;20640;-69
2021/09/13 00:14:44;;;;;;;5.07;4.68;;;;;;;14.54;71.72;99092.47;2618428;54;20026;-69
2021/09/13 00:17:14;;;;;;;7.03;5.50;;;;;;;14.58;71.70;99097.16;2617987;47;20022;-70
2021/09/13 00:19:43;;;;;;;6.10;5.43;;;;;;;14.44;72.06;99089.41;2617651;54;20023;-70
2021/09/13 00:22:14;;;;;;;6.80;5.60;;;;;;;14.47;72.08;99081.00;2617744;54;20031;-69
2021/09/13 00:24:44;;;;;;;6.32;5.80;;;;;;;14.41;71.91;99080.03;2617000;54;20038;-69
2021/09/13 00:27:16;;;;;;;6.47;5.78;;;;;;;14.32;72.11;99078.59;2617601;54;20030;-69
2021/09/13 00:29:47;;;;;;;6.68;5.93;;;;;;;14.28;72.68;99085.38;2617771;54;20066;-70
2021/09/13 00:32:20;;;;;;;6.32;5.47;;;;;;;14.26;72.55;99071.47;2617665;54;20110;-68
2021/09/13 00:34:50;;;;;;;6.10;5.50;;;;;;;14.21;72.32;99066.78;2616360;39;20429;-70
2021/09/13 00:37:20;;;;;;;5.65;5.15;;;;;;;14.19;72.69;99068.84;2617800;54;20033;-69
2021/09/13 00:39:51;;;;;;;6.65;5.47;;;;;;;14.24;72.89;99074.31;2616381;47;20167;-69
2021/09/13 00:42:24;;;;;;;5.90;5.28;;;;;;;14.25;72.50;99068.00;2617204;54;20042;-69
2021/09/13 00:44:54;;;;;;;6.57;5.43;;;;;;;14.29;72.93;99071.88;2617290;54;20026;-69
2021/09/13 00:47:24;;;;;;;5.20;4.70;;;;;;;14.38;72.36;99070.63;2617804;54;20022;-69
2021/09/13 00:49:54;;;;;;;6.97;5.25;;;;;;;14.37;71.97;99069.00;2616997;47;20031;-69
2021/09/13 00:52:25;;;;;;;7.57;5.68;;;;;;;14.28;72.06;99072.06;2617649;54;20026;-69
2021/09/13 00:54:55;;;;;;;7.50;5.15;;;;;;;14.13;72.37;99067.84;2618065;54;20030;-69
2021/09/13 00:57:27;;;;;;;5.90;5.40;;;;;;;14.04;72.19;99065.59;2618558;54;20045;-69
2021/09/13 00:59:57;;;;;;;6.25;5.15;;;;;;;13.93;72.75;99064.41;2618462;54;20534;-69
2021/09/13 01:02:27;;;;;;;5.97;5.38;;;;;;;13.87;73.17;99059.91;2618454;54;20042;-70
2021/09/13 01:04:57;;;;;;;6.28;5.13;;;;;;;13.81;73.26;99061.56;2620932;54;20075;-69
2021/09/13 01:07:30;;;;;;;6.38;5.00;;;;;;;13.83;73.05;99056.84;2621914;54;20022;-68
2021/09/13 01:10:00;;;;;;;6.75;5.25;;;;;;;13.86;73.46;99060.94;2622395;54;20089;-69
2021/09/13 01:12:33;;;;;;;6.97;4.90;;;;;;;13.82;73.10;99057.88;2621763;54;20095;-68
2021/09/13 01:15:03;;;;;;;5.87;5.37;;;;;;;13.79;72.98;99057.47;2622189;54;20038;-70
2021/09/13 01:17:33;;;;;;;5.13;4.68;;;;;;;13.75;73.43;99051.75;2623124;54;20023;-70
2021/09/13 01:20:02;;;;;;;5.32;4.80;;;;;;;13.84;73.49;99058.50;2621808;47;20045;-70
2021/09/13 01:22:36;;;;;;;5.20;4.70;;;;;;;13.97;73.25;99052.34;2621832;47;20034;-69
2021/09/13 01:25:12;;;;;;;5.43;4.93;;;;;;;13.99;72.52;99047.63;2621442;53;20046;-70
2021/09/13 01:27:43;;;;;;;8.07;5.05;;;;;;;13.93;72.69;99045.81;2618481;47;20034;-70
2021/09/13 01:30:14;;;;;;;5.50;4.97;;;;;;;13.86;72.50;99050.31;2618113;39;20452;-70
2021/09/13 01:32:43;;;;;;;5.85;5.32;;;;;;;13.84;72.79;99042.56;2618326;54;20042;-70
2021/09/13 01:35:13;;;;;;;5.88;5.30;;;;;;;13.87;72.73;99044.78;2617687;54;20055;-70
2021/09/13 01:37:43;;;;;;;5.85;5.35;;;;;;;13.76;72.48;99056.06;2617648;54;20034;-70
2021/09/13 01:40:17;;;;;;;5.32;4.82;;;;;;;13.72;72.67;99056.69;2617927;47;20041;-70
2021/09/13 01:42:47;;;;;;;6.03;5.43;;;;;;;13.72;72.43;99051.38;2617859;47;20580;-70
2021/09/13 01:45:17;;;;;;;6.78;5.90;;;;;;;13.65;73.11;99048.72;2617696;54;20070;-70
2021/09/13 01:47:47;;;;;;;6.72;5.40;;;;;;;13.51;72.97;99050.56;2617943;47;20045;-71
2021/09/13 01:50:19;;;;;;;8.23;5.50;;;;;;;13.45;73.12;99053.22;2618241;54;20030;-71
2021/09/13 01:52:48;;;;;;;5.88;5.35;;;;;;;13.48;73.60;99053.63;2618261;54;20026;-70
2021/09/13 01:55:21;;;;;;;7.00;5.47;;;;;;;13.47;73.13;99052.00;2617654;54;20031;-71
2021/09/13 01:57:51;;;;;;;5.50;5.07;;;;;;;13.46;73.23;99052.19;2617585;54;20193;-71
2021/09/13 02:00:23;;;;;;;8.38;5.90;;;;;;;13.44;73.17;99040.97;2617770;47;20046;-70
2021/09/13 02:02:54;;;;;;;5.47;4.97;;;;;;;13.44;73.02;99044.44;2617708;47;20057;-70
2021/09/13 02:05:38;;;;;;;6.80;5.53;;;;;;;13.45;72.81;99046.06;2618460;39;20442;-70
2021/09/13 02:08:08;;;;;;;6.43;5.57;;;;;;;13.36;73.19;99048.13;2617698;54;20046;-70
2021/09/13 02:10:40;;;;;;;6.22;5.63;;;;;;;13.23;73.39;99042.00;2617885;47;20038;-70
2021/09/13 02:13:10;;;;;;;5.82;5.32;;;;;;;13.31;73.66;99045.28;2617765;54;20034;-69
2021/09/13 02:15:40;;;;;;;6.82;5.47;;;;;;;13.45;73.36;99043.41;2617181;51;20046;-70
2021/09/13 02:18:10;;;;;;;6.97;5.82;;;;;;;13.50;72.68;99040.13;2618266;54;20820;-69
2021/09/13 02:20:48;;;;;;;6.45;5.28;;;;;;;13.36;72.57;99040.16;2617522;47;20030;-70
2021/09/13 02:23:18;;;;;;;7.10;5.50;;;;;;;13.31;73.11;99037.31;2617601;47;20073;-69
2021/09/13 02:25:50;;;;;;;6.85;6.05;;;;;;;13.31;73.28;99037.31;2617329;54;20041;-70
2021/09/13 02:28:20;;;;;;;6.43;5.60;;;;;;;13.21;73.10;99041.34;2617700;54;20031;-70
2021/09/13 02:30:50;;;;;;;5.65;5.07;;;;;;;13.19;73.04;99043.41;2618248;39;20565;-71
2021/09/13 02:33:21;;;;;;;6.75;5.03;;;;;;;13.20;73.13;99039.72;2617991;54;20038;-71
2021/09/13 02:35:51;;;;;;;9.82;5.70;;;;;;;13.17;73.50;99037.47;2617652;54;20034;-71
2021/09/13 02:38:21;;;;;;;5.47;5.07;;;;;;;13.18;73.47;99036.44;2618442;54;20034;-69
2021/09/13 02:40:53;;;;;;;7.57;5.43;;;;;;;13.29;72.83;99051.78;2618860;54;20577;-70
2021/09/13 02:43:24;;;;;;;6.35;5.20;;;;;;;13.30;72.44;99051.56;2618923;54;20032;-70
2021/09/13 02:45:56;;;;;;;5.38;4.88;;;;;;;13.22;72.95;99056.25;2618047;47;20023;-69
2021/09/13 02:48:26;;;;;;;6.35;4.95;;;;;;;13.26;72.87;99049.53;2618353;46;20038;-70
2021/09/13 02:50:55;;;;;;;5.10;4.70;;;;;;;13.24;72.69;99056.91;2618685;54;20045;-70
2021/09/13 02:53:29;;;;;;;5.07;4.68;;;;;;;13.28;72.53;99053.63;2618613;54;20023;-71
2021/09/13 02:56:02;;;;;;;5.70;5.13;;;;;;;13.34;72.40;99052.81;2618855;39;20458;-71
2021/09/13 02:58:35;;;;;;;5.75;5.20;;;;;;;13.37;72.36;99060.38;2618103;47;20030;-71
2021/09/13 03:01:05;;;;;;;5.60;5.07;;;;;;;13.40;71.87;99061.00;2617442;54;20031;-70
2021/09/13 03:03:36;;;;;;;6.85;5.13;;;;;;;13.36;71.76;99050.78;2617359;47;20026;-70
2021/09/13 03:06:08;;;;;;;6.13;5.53;;;;;;;13.29;71.83;99052.59;2617835;54;20030;-71
2021/09/13 03:08:40;;;;;;;5.82;5.07;;;;;;;13.30;72.11;99056.88;2618859;31;20560;-70
2021/09/13 03:11:13;;;;;;;5.88;5.35;;;;;;;13.33;72.03;99060.97;2617770;54;20022;-71
2021/09/13 03:13:43;;;;;;;7.03;5.40;;;;;;;13.14;71.86;99049.28;2617682;54;20541;-72
2021/09/13 03:16:14;;;;;;;5.88;5.38;;;;;;;13.02;72.60;99053.56;2617433;47;20038;-70
2021/09/13 03:18:45;;;;;;;6.13;5.60;;;;;;;12.96;72.92;99052.53;2617792;54;20052;-71
2021/09/13 03:21:15;;;;;;;7.47;5.35;;;;;;;12.86;72.89;99060.09;2617912;54;20042;-70
2021/09/13 03:23:45;;;;;;;7.18;6.47;;;;;;;12.77;72.88;99053.31;2618367;39;20537;-70
2021/09/13 03:26:17;;;;;;;6.05;5.35;;;;;;;12.67;73.58;99058.19;2617778;54;20045;-70
2021/09/13 03:28:47;;;;;;;6.10;5.50;;;;;;;12.82;73.25;99064.97;2618781;54;20103;-69
2021/09/13 03:31:16;;;;;;;5.72;5.22;;;;;;;12.75;73.33;99068.63;2618276;54;20038;-70
2021/09/13 03:33:47;;;;;;;6.57;5.95;;;;;;;12.78;73.08;99060.28;2617846;47;20026;-70
2021/09/13 03:36:17;;;;;;;6.20;5.57;;;;;;;12.79;73.85;99065.38;2618060;54;20074;-70
2021/09/13 03:38:47;;;;;;;6.55;4.95;;;;;;;12.94;73.94;99064.38;2618016;54;20042;-71
2021/09/13 03:41:23;;;;;;;5.57;4.70;;;;;;;13.05;73.71;99064.59;2620150;54;20576;-71
2021/09/13 03:43:54;;;;;;;5.35;4.85;;;;;;;13.14;73.11;99055.44;2622146;54;20030;-70
2021/09/13 03:46:23;;;;;;;5.40;4.30;;;;;;;13.20;73.07;99053.00;2623049;39;20432;-69
2021/09/13 03:49:09;;;;;;;5.20;4.70;;;;;;;13.26;72.18;99053.00;2624444;47;20034;-70
2021/09/13 03:51:39;;;;;;;8.20;5.45;;;;;;;13.14;72.65;99050.13;2625213;54;20058;-71
2021/09/13 03:54:09;;;;;;;5.00;4.50;;;;;;;13.09;72.86;99057.88;2621601;54;20089;-71
2021/09/13 03:56:43;;;;;;;5.43;4.90;;;;;;;13.17;72.83;99056.84;2618663;54;20130;-69
2021/09/13 03:59:15;;;;;;;5.00;4.03;;;;;;;13.22;72.78;99056.25;2621089;39;20434;-69
2021/09/13 04:01:45;;;;;;;6.55;4.40;;;;;;;13.29;72.91;99049.13;2620570;47;20564;-70
2021/09/13 04:04:17;;;;;;;6.13;4.55;;;;;;;13.34;72.47;99046.69;2620440;54;20114;-70
2021/09/13 04:06:51;;;;;;;4.70;4.20;;;;;;;13.31;71.80;99044.44;2619463;54;20046;-70
2021/09/13 04:09:48;;;;;;;6.68;4.00;;;;;;;13.29;72.13;99043.81;2620022;47;20039;-70
2021/09/13 04:12:43;;;;;;;4.88;4.47;;;;;;;13.17;72.32;99037.47;2618849;47;20030;-70
2021/09/13 04:15:38;;;;;;;8.68;7.00;;;;;;;13.07;72.08;99043.19;2618692;31;20498;-70
2021/09/13 04:18:08;;;;;;;7.82;6.25;;;;;;;13.07;72.10;99044.00;2619309;54;20096;-69
2021/09/13 04:21:16;;;;;;;4.60;4.20;;;;;;;13.02;72.46;99046.44;2617035;39;20732;-70
2021/09/13 04:24:17;;;;;;;6.35;4.90;;;;;;;12.95;72.31;99042.16;2616646;54;20054;-69
2021/09/13 04:27:16;;;;;;;5.57;4.70;;;;;;;12.80;72.65;99043.13;2616462;54;20030;-68
2021/09/13 04:30:00;;;;;;;5.35;4.85;;;;;;;12.63;72.81;99039.22;2617306;54;20037;-71
2021/09/13 04:32:45;;;;;;;8.07;6.90;;;;;;;12.54;73.48;99043.06;2618230;39;20129;-70
2021/09/13 04:35:28;;;;;;;6.78;5.10;;;;;;;12.48;73.04;99034.06;2617826;54;20034;-69
2021/09/13 04:38:36;;;;;;;7.80;5.55;;;;;;;12.42;73.52;99032.22;2617765;39;20442;-69
2021/09/13 04:41:26;;;;;;;6.25;4.70;;;;;;;12.38;73.40;99036.28;2618219;39;20504;-69
2021/09/13 04:44:20;;;;;;;5.10;4.07;;;;;;;12.26;73.49;99033.38;2618885;47;20038;-69
2021/09/13 04:47:28;;;;;;;5.22;4.22;;;;;;;12.25;73.83;99031.75;2619172;54;20042;-71
2021/09/13 04:50:14;;;;;;;5.75;5.15;;;;;;;12.23;73.86;99032.94;2619019;54;20038;-70
2021/09/13 04:53:15;;;;;;;6.40;5.25;;;;;;;12.19;73.81;99031.72;2618876;39;20441;-70
2021/09/13 04:55:45;;;;;;;6.40;4.93;;;;;;;12.21;73.97;99029.69;2618994;54;20549;-69
2021/09/13 04:58:15;;;;;;;7.43;5.20;;;;;;;12.26;74.31;99037.84;2619018;46;20038;-69
2021/09/13 05:00:45;;;;;;;5.75;4.35;;;;;;;12.19;74.37;99034.34;2618917;54;20027;-71
2021/09/13 05:03:18;;;;;;;7.25;4.65;;;;;;;12.22;74.37;99041.91;2618884;54;20034;-71
2021/09/13 05:05:48;;;;;;;5.55;4.43;;;;;;;12.33;74.36;99044.00;2618486;47;20038;-70
2021/09/13 05:08:18;;;;;;;4.95;4.20;;;;;;;12.47;74.30;99039.56;2618506;54;20039;-71
2021/09/13 05:10:47;;;;;;;8.48;4.85;;;;;;;12.55;73.74;99044.69;2618802;47;20042;-72
2021/09/13 05:13:17;;;;;;;5.68;4.10;;;;;;;12.60;73.33;99043.06;2618717;54;20065;-70
2021/09/13 05:15:47;;;;;;;7.78;4.80;;;;;;;12.62;73.13;99045.53;2620011;54;20022;-71
2021/09/13 05:18:21;;;;;;;5.70;4.50;;;;;;;12.47;73.33;99047.53;2618875;54;20030;-71
2021/09/13 05:20:51;;;;;;;7.82;6.43;;;;;;;12.51;73.46;99046.91;2619869;54;20046;-72
2021/09/13 05:23:27;;;;;;;7.28;5.75;;;;;;;12.53;73.59;99054.66;2619747;39;20433;-70
2021/09/13 05:25:57;;;;;;;6.30;5.70;;;;;;;12.64;73.38;99052.25;2623238;54;20102;-69
2021/09/13 05:28:26;;;;;;;6.00;5.32;;;;;;;12.70;73.04;99058.63;2620593;51;20041;-69
2021/09/13 05:31:00;;;;;;;4.68;4.30;;;;;;;12.75;72.97;99063.31;2621310;47;20104;-68
2021/09/13 05:33:36;;;;;;;5.88;4.25;;;;;;;12.80;72.92;99066.19;2623225;54;20047;-70
2021/09/13 05:36:07;;;;;;;7.40;5.43;;;;;;;12.89;72.60;99062.31;2623988;47;20190;-69
2021/09/13 05:38:36;;;;;;;8.07;5.22;;;;;;;12.92;72.92;99061.94;2624292;47;20042;-68
2021/09/13 05:41:26;;;;;;;7.55;4.57;;;;;;;13.00;72.72;99063.56;2625117;54;20114;-69
2021/09/13 05:43:56;;;;;;;5.60;4.90;;;;;;;13.00;72.22;99061.75;2624742;54;20039;-69
2021/09/13 05:46:25;;;;;;;6.10;5.50;;;;;;;12.98;72.38;99060.28;2624318;54;20553;-70
2021/09/13 05:48:58;;;;;;;7.65;5.55;;;;;;;12.99;72.44;99069.91;2624577;54;20538;-68
2021/09/13 05:51:28;;;;;;;5.95;5.00;;;;;;;13.08;72.63;99053.59;2624229;39;20472;-69
2021/09/13 05:53:58;;;;;;;7.60;5.03;;;;;;;13.09;71.91;99065.81;2624273;54;20042;-68
2021/09/13 05:56:27;;;;;;;6.75;5.43;;;;;;;13.14;71.92;99070.53;2623387;54;20035;-69
2021/09/13 05:58:57;;;;;;;10.90;5.47;;;;;;;13.19;71.93;99073.41;2623483;47;20038;-69
2021/09/13 06:01:27;;;;;;;6.78;4.47;;;;;;;13.24;71.55;99078.13;2624100;54;20035;-69
2021/09/13 06:04:00;;;;;;;8.73;6.13;;;;;;;13.26;71.54;99078.75;2623229;47;20081;-69
2021/09/13 06:06:37;;;;;;;5.20;4.70;;;;;;;13.35;71.19;99085.50;2622677;47;20027;-70
2021/09/13 06:09:06;;;;;;;7.85;5.25;;;;;;;13.34;71.18;99084.66;2623767;46;20090;-69
2021/09/13 06:11:36;;;;;;;5.55;4.95;;;;;;;13.38;70.57;99085.88;2624257;54;20041;-69
2021/09/13 06:14:06;;;;;;;5.13;4.15;;;;;;;13.35;70.65;99091.63;2623739;47;20572;-69
2021/09/13 06:16:36;;;;;;;9.88;5.05;;;;;;;13.38;70.38;99085.06;2624213;54;20027;-69
2021/09/13 06:19:11;;;;;;;8.38;5.45;;;;;;;13.43;70.58;99090.63;2623940;54;20584;-69
2021/09/13 06:21:41;;;;;;;8.90;7.80;;;;;;;13.48;70.21;99087.34;2624149;54;20034;-70
2021/09/13 06:24:11;;;;;;;10.30;6.30;;;;;;;13.48;69.91;99088.16;2623887;47;20283;-69
2021/09/13 06:26:44;;;;;;;6.35;5.15;;;;;;;13.48;70.05;99087.34;2622700;54;20030;-69
2021/09/13 06:29:14;;;;;;;7.60;5.82;;;;;;;13.49;69.98;99089.78;2622063;47;20025;-68
2021/09/13 06:31:46;;;;;;;8.27;7.07;;;;;;;13.54;69.91;99082.00;2621968;47;20022;-69
2021/09/13 06:34:19;;;;;;;8.95;6.30;;;;;;;13.60;70.10;99089.19;2623048;47;20033;-69
2021/09/13 06:36:51;;;;;;;14.13;9.13;;;;;;;13.68;69.67;99097.97;2623505;54;20159;-67
2021/09/13 06:39:21;;;;;;;9.23;6.30;;;;;;;13.75;69.86;99104.06;2623471;54;20056;-68
2021/09/13 06:41:50;;;;;;;11.57;8.82;;;;;;;13.87;69.29;99094.47;2623316;47;20038;-69
2021/09/13 06:44:33;;;;;;;8.18;6.13;;;;;;;13.96;69.18;99092.41;2623068;54;20053;-69
2021/09/13 06:47:08;;;;;;;6.03;5.43;;;;;;;14.01;69.38;99095.28;2622563;47;20045;-69
2021/09/13 06:49:40;;;;;;;8.85;5.45;;;;;;;14.04;69.10;99094.84;2622566;47;20030;-69
2021/09/13 06:52:10;;;;;;;8.38;5.88;;;;;;;14.07;69.51;99086.44;2622917;47;20647;-69
2021/09/13 06:54:40;;;;;;;6.57;5.80;;;;;;;14.08;68.89;99091.56;2624759;31;20542;-68
2021/09/13 06:57:09;;;;;;;8.18;6.38;;;;;;;14.13;69.35;99090.94;2622944;54;20049;-69
2021/09/13 06:59:39;;;;;;;7.00;5.28;;;;;;;14.17;68.70;99092.16;2622731;54;20097;-68
2021/09/13 07:02:09;;;;;;;7.57;6.10;;;;;;;14.20;69.18;99094.38;2622814;54;20023;-69
2021/09/13 07:04:42;;;;;;;7.03;6.05;;;;;;;14.26;69.03;99090.09;2623437;54;20034;-68
2021/09/13 07:07:12;;;;;;;8.57;5.50;;;;;;;14.32;68.71;99092.72;2623113;54;20039;-68
2021/09/13 07:09:41;;;;;;;7.97;5.90;;;;;;;14.45;68.81;99089.22;2623100;54;20039;-70
2021/09/13 07:12:11;;;;;;;6.72;5.28;;;;;;;14.57;68.69;99094.69;2622962;54;20049;-68
2021/09/13 07:14:43;;;;;;;8.85;5.75;;;;;;;14.71;68.33;99090.97;2620545;47;20043;-68
2021/09/13 07:17:14;;;;;;;8.77;5.70;;;;;;;14.81;68.03;99101.97;2619328;47;20034;-69
2021/09/13 07:19:47;;;;;;;6.55;5.35;;;;;;;14.85;67.95;99095.19;2619842;47;20045;-69
2021/09/13 07:22:17;;;;;;;8.23;6.03;;;;;;;14.99;67.88;99095.94;2623473;54;20019;-69
2021/09/13 07:24:47;;;;;;;6.38;5.78;;;;;;;15.08;67.41;99091.97;2622382;47;20596;-69
2021/09/13 07:27:17;;;;;;;7.53;5.80;;;;;;;15.18;67.79;99104.00;2622421;54;20611;-68
2021/09/13 07:29:46;;;;;;;8.15;5.00;;;;;;;15.31;68.05;99109.25;2622794;47;20049;-69
2021/09/13 07:32:16;;;;;;;6.80;5.50;;;;;;;15.47;67.63;99121.22;2622522;54;20042;-69
2021/09/13 07:34:49;;;;;;;9.18;6.22;;;;;;;15.64;67.39;99106.34;2622874;54;20034;-69
2021/09/13 07:37:18;;;;;;;9.25;6.20;;;;;;;15.75;66.42;99105.63;2623596;54;20041;-68
2021/09/13 07:39:48;;;;;;;16.55;9.60;;;;;;;15.85;66.20;99105.97;2623441;54;20792;-68
2021/09/13 07:42:18;;;;;;;12.25;7.25;;;;;;;15.93;66.42;99106.75;2623279;54;20027;-69
2021/09/13 07:44:47;;;;;;;13.55;8.32;;;;;;;16.06;66.22;99099.41;2622737;47;20057;-68
2021/09/13 07:47:18;;;;;;;8.52;5.72;;;;;;;16.25;65.97;99102.09;2624308;54;20038;-69
2021/09/13 07:49:50;;;;;;;8.93;6.65;;;;;;;16.41;65.51;99111.34;2623525;39;20462;-69
2021/09/13 07:52:20;;;;;;;8.40;6.40;;;;;;;16.46;65.22;99104.31;2622069;47;20030;-68
2021/09/13 07:54:49;;;;;;;9.57;5.65;;;;;;;16.53;65.10;99096.22;2621239;54;20041;-69
2021/09/13 07:57:19;;;;;;;10.40;7.95;;;;;;;16.66;64.79;99101.41;2621422;39;20450;-69
2021/09/13 07:59:49;;;;;;;11.07;8.25;;;;;;;16.79;64.34;99103.94;2620251;47;20035;-69
2021/09/13 08:02:18;;;;;;;10.13;7.00;;;;;;;16.89;63.65;99100.72;2619359;54;20027;-69
2021/09/13 08:04:51;;;;;;;8.95;6.93;;;;;;;16.93;64.08;99101.09;2619990;46;20494;-69
2021/09/13 08:07:21;;;;;;;6.57;5.70;;;;;;;17.01;63.28;99098.09;2621940;47;20122;-73
2021/09/13 08:09:51;;;;;;;7.55;4.90;;;;;;;17.07;63.38;99097.19;2622723;54;20557;-69
2021/09/13 08:12:21;;;;;;;9.45;5.50;;;;;;;17.18;62.98;99103.59;2623404;39;20461;-69
2021/09/13 08:14:54;;;;;;;6.38;5.05;;;;;;;17.23;62.99;99101.09;2621057;54;20061;-70
2021/09/13 08:17:25;;;;;;;5.60;4.60;;;;;;;17.33;62.59;99099.47;2620874;54;20070;-69
2021/09/13 08:19:59;;;;;;;5.93;4.63;;;;;;;17.47;62.84;99102.75;2620818;54;20061;-70
2021/09/13 08:22:29;;;;;;;4.70;4.13;;;;;;;17.62;62.31;99096.16;2621085;54;20026;-69
2021/09/13 08:24:59;;;;;;;6.85;4.88;;;;;;;17.80;61.95;99104.91;2621619;39;20326;-71
2021/09/13 08:27:48;;;;;;;11.93;5.53;;;;;;;17.96;61.30;99113.28;2622106;53;20030;-70
2021/09/13 08:30:18;;;;;;;7.40;4.05;;;;;;;18.09;60.79;99112.25;2623620;54;20046;-69
2021/09/13 08:32:48;;;;;;;9.10;4.90;;;;;;;18.17;60.94;99117.25;2623969;54;20034;-70
2021/09/13 08:35:23;;;;;;;9.57;4.88;;;;;;;18.31;60.68;99114.06;2623678;39;20446;-70
2021/09/13 08:37:53;;;;;;;5.90;4.35;;;;;;;18.42;59.90;99122.31;2623618;54;20035;-68
2021/09/13 08:40:22;;;;;;;7.75;5.13;;;;;;;18.49;59.88;99121.16;2623319;54;20562;-69
2021/09/13 08:42:53;;;;;;;6.20;4.10;;;;;;;18.63;59.26;99127.03;2621597;47;20079;-70
2021/09/13 08:45:31;;;;;;;7.80;4.25;;;;;;;18.78;58.51;99130.06;2623059;54;20039;-71
2021/09/13 08:48:12;;;;;;;5.30;4.65;;;;;;;18.94;58.42;99135.69;2623963;54;20047;-69
2021/09/13 08:51:04;;;;;;;6.80;4.28;;;;;;;19.09;58.02;99127.94;2622779;54;20027;-70
2021/09/13 08:53:39;;;;;;;5.60;3.47;;;;;;;19.16;57.44;99122.47;2623345;54;20022;-69
2021/09/13 08:56:14;;;;;;;4.50;3.28;;;;;;;19.23;57.37;99123.94;2623168;54;20033;-69
2021/09/13 08:58:44;;;;;;;5.07;3.75;;;;;;;19.27;57.52;99125.09;2623208;51;20030;-68
2021/09/13 09:01:15;;;;;;;5.82;4.03;;;;;;;19.42;56.28;99121.03;2622794;54;20035;-69
2021/09/13 09:03:47;;;;;;;6.68;3.90;;;;;;;19.51;56.75;99120.41;2622827;54;20038;-68
2021/09/13 09:06:40;;;;;;;5.53;3.95;;;;;;;19.59;56.09;99115.66;2622953;54;20053;-69
2021/09/13 09:09:11;;;;;;;6.13;4.10;;;;;;;19.59;56.37;99126.41;2621755;46;20050;-69
2021/09/13 09:11:56;;;;;;;6.15;3.60;;;;;;;19.70;56.76;99118.31;2622995;54;20033;-69
2021/09/13 09:14:33;;;;;;;4.75;3.50;;;;;;;19.92;55.40;99117.56;2623583;54;20129;-69
2021/09/13 09:17:06;;;;;;;6.47;3.30;;;;;;;20.01;55.23;99113.41;2623106;54;20026;-70
2021/09/13 09:19:36;;;;;;;5.78;3.28;;;;;;;20.00;54.67;99107.25;2622907;49;20042;-70
2021/09/13 09:22:24;;;;;;;7.25;3.40;;;;;;;20.09;54.55;99107.63;2622717;39;20469;-69
2021/09/13 09:24:55;;;;;;;4.95;2.80;;;;;;;20.19;53.82;99110.44;2622429;54;20031;-70
2021/09/13 09:27:26;;;;;;;3.92;3.17;;;;;;;20.26;53.43;99099.53;2622629;47;20544;-70
2021/09/13 09:29:56;;;;;;;6.25;3.70;;;;;;;20.37;53.86;99087.88;2621768;47;20106;-71
2021/09/13 09:32:28;;;;;;;3.47;2.83;;;;;;;20.53;52.52;99087.03;2622421;54;20034;-71
2021/09/13 09:34:58;;;;;;;3.75;2.80;;;;;;;20.62;52.58;99091.97;2623371;54;20030;-69
2021/09/13 09:37:30;;;;;;;5.07;2.70;;;;;;;20.64;52.15;99089.81;2621384;47;20561;-69
2021/09/13 09:40:02;;;;;;;3.03;2.72;;;;;;;20.74;51.78;99087.25;2620997;54;20530;-69
2021/09/13 09:42:34;;;;;;;3.30;3.00;;;;;;;20.89;51.32;99094.66;2620660;54;20035;-69
2021/09/13 09:45:07;;;;;;;7.78;2.75;;;;;;;20.96;50.50;99085.34;2620820;54;20041;-69
2021/09/13 09:47:36;;;;;;;5.15;2.60;;;;;;;21.03;50.83;99087.84;2620762;54;20041;-69
2021/09/13 09:50:07;;;;;;;4.00;2.70;;;;;;;21.12;49.54;99085.50;2620222;51;20034;-69
2021/09/13 09:52:48;;;;;;;6.53;2.53;;;;;;;21.13;50.14;99074.47;2622274;39;20457;-69
2021/09/13 09:55:20;;;;;;;3.83;2.30;;;;;;;21.22;49.81;99072.94;2620631;54;20031;-69
2021/09/13 09:58:10;;;;;;;3.95;2.70;;;;;;;21.34;49.05;99078.19;2621015;47;20022;-69
2021/09/13 10:00:40;;;;;;;5.03;2.33;;;;;;;21.39;48.97;99072.88;2620959;54;20035;-69
2021/09/13 10:03:10;;;;;;;5.40;2.60;;;;;;;21.42;48.55;99064.28;2621762;54;20030;-69
2021/09/13 10:05:40;;;;;;;5.53;2.40;;;;;;;21.47;48.55;99067.03;2621596;54;20037;-68
2021/09/13 10:08:14;;;;;;;6.82;2.40;;;;;;;21.49;47.79;99064.88;2622396;54;20022;-69
2021/09/13 10:10:45;;;;;;;4.97;3.10;;;;;;;21.52;47.64;99060.88;2621187;47;20035;-69
2021/09/13 10:13:14;;;;;;;3.58;2.35;;;;;;;21.53;47.68;99057.09;2620071;47;20530;-69
2021/09/13 10:15:44;;;;;;;5.80;2.35;;;;;;;21.63;47.68;99054.47;2620432;54;20026;-69
2021/09/13 10:18:14;;;;;;;4.07;2.22;;;;;;;21.76;47.50;99053.22;2620420;54;20035;-69
2021/09/13 10:20:45;;;;;;;6.53;2.63;;;;;;;21.88;47.00;99053.84;2619872;54;20038;-69
2021/09/13 10:23:18;;;;;;;5.40;2.40;;;;;;;21.91;47.28;99045.22;2618984;47;20031;-69
2021/09/13 10:25:47;;;;;;;6.47;2.20;;;;;;;21.95;47.01;99043.63;2620370;39;20411;-69
2021/09/13 10:28:17;;;;;;;6.75;2.90;;;;;;;22.03;46.79;99045.03;2619620;54;20034;-69
2021/09/13 10:30:54;;;;;;;4.22;2.40;;;;;;;22.11;46.10;99044.53;2620276;39;20465;-69
2021/09/13 10:33:59;;;;;;;3.25;2.22;;;;;;;22.20;46.36;99036.78;2619670;39;20422;-69
2021/09/13 10:36:59;;;;;;;3.38;2.20;;;;;;;22.32;45.82;99037.38;2619247;54;20022;-69
2021/09/13 10:39:51;;;;;;;2.50;2.10;;;;;;;22.25;46.18;99040.34;2619471;54;20026;-70
2021/09/13 10:42:44;;;;;;;5.35;2.30;;;;;;;22.22;46.28;99037.34;2620053;47;20030;-69
2021/09/13 10:45:18;;;;;;;5.50;2.23;;;;;;;22.23;46.15;99038.97;2620088;47;20038;-69
2021/09/13 10:47:50;;;;;;;3.78;2.00;;;;;;;22.31;46.26;99037.66;2620698;54;20031;-69
2021/09/13 10:50:23;;;;;;;4.45;2.20;;;;;;;22.32;46.74;99028.50;2620793;54;20546;-69
2021/09/13 10:52:55;;;;;;;4.60;1.85;;;;;;;22.40;45.71;99026.09;2620837;54;20027;-69
2021/09/13 10:55:41;;;;;;;3.00;2.63;;;;;;;22.50;45.79;99030.72;2619742;47;20030;-68
2021/09/13 10:58:16;;;;;;;4.22;2.70;;;;;;;22.57;45.67;99023.19;2621135;54;20034;-69
2021/09/13 11:01:02;;;;;;;4.68;2.40;;;;;;;22.57;45.56;99020.47;2621126;54;20104;-69
2021/09/13 11:03:36;;;;;;;2.42;2.22;;;;;;;22.59;45.54;99020.25;2622921;54;20046;-69
2021/09/13 11:06:31;;;;;;;3.47;2.53;;;;;;;22.54;46.10;99012.97;2622330;54;20049;-70
2021/09/13 11:09:05;;;;;;;4.68;2.10;;;;;;;22.70;45.43;99006.53;2622053;54;20038;-70
2021/09/13 11:11:41;;;;;;;3.55;2.03;;;;;;;22.70;45.78;99000.34;2622448;54;20019;-70
2021/09/13 11:14:12;;;;;;;3.40;2.47;;;;;;;22.84;45.32;99006.00;2621994;47;20031;-69
2021/09/13 11:16:43;;;;;;;4.88;2.38;;;;;;;22.96;44.96;98999.31;2623204;54;20038;-70
2021/09/13 11:19:14;;;;;;;2.90;2.42;;;;;;;22.88;45.10;98997.09;2621598;54;20034;-69
2021/09/13 11:21:45;;;;;;;2.55;2.35;;;;;;;22.93;44.52;98997.13;2622573;54;20038;-69
2021/09/13 11:24:18;;;;;;;3.40;2.30;;;;;;;22.85;44.99;98986.84;2621458;54;20034;-69
2021/09/13 11:26:52;;;;;;;5.43;2.60;;;;;;;23.06;44.71;98990.41;2616892;54;20093;-64
2021/09/13 11:29:27;;;;;;;4.68;2.53;;;;;;;23.11;44.52;98990.41;2618038;54;20806;-63
2021/09/13 17:27:33;;;;;;;5.78;3.20;;;;;;;22.13;48.18;98834.34;2620052;54;20046;-71
2021/09/13 17:30:07;;;;;;;4.43;2.95;;;;;;;22.03;48.58;98840.44;2621318;54;20553;-71
2021/09/13 17:32:47;;;;;;;4.43;2.78;;;;;;;21.96;48.23;98835.34;2621379;54;20033;-71
2021/09/13 17:35:22;;;;;;;5.43;3.33;;;;;;;21.88;48.65;98835.03;2621728;47;20033;-72
2021/09/13 17:37:53;;;;;;;;;;;;;;;21.79;49.18;98842.81;2622094;54;20041;-71
2021/09/13 17:40:24;;;;;;;4.70;3.42;;;;;;;21.71;49.70;98838.75;2621933;54;19953;-70
2021/09/13 17:42:57;;;;;;;5.22;3.33;;;;;;;21.66;49.65;98827.97;2622374;54;20042;-71
2021/09/13 17:45:29;;;;;;;6.70;3.72;;;;;;;21.61;50.12;98825.28;2621665;47;20073;-72
2021/09/13 17:48:03;;;;;;;4.55;3.53;;;;;;;21.57;50.33;98815.31;2621993;54;20562;-72
2021/09/13 17:50:36;;;;;;;4.72;4.05;;;;;;;21.50;50.07;98807.47;2621968;47;20158;-71
2021/09/13 17:53:10;;;;;;;3.50;2.65;;;;;;;21.44;50.36;98817.44;2620069;47;20037;-72
2021/09/13 17:55:43;;;;;;;6.07;3.13;;;;;;;21.37;51.12;98816.03;2620786;47;20031;-71
2021/09/13 17:58:16;;;;;;;6.03;3.08;;;;;;;21.33;51.49;98817.63;2620519;54;20103;-72
2021/09/13 18:00:47;;;;;;;;;;;;;;;21.24;51.07;98825.38;2620511;54;20026;-72